EPGD/GDN METAR and TAF weather

Enter ICAO airport designator
Station Type Date Time Source
EPGD METAR 2018/10/16 20:30 UTC NOAA

EPGD 162030Z VRB01KT 8000 NSC 09/07 Q1021


Station Type Date Time Source
EPGD Decoded METAR 2018/10/16 20:30 UTC NOAA

Gdansk-Rebiechowo, Poland (EPGD) 54-23N 018-28E 138M
Oct 16, 2018 - 04:30 PM EDT / 2018.10.16 2030 UTC
Wind: Variable at 1 MPH (1 KT):0
Visibility: 4 mile(s):0
Temperature: 48 F (9 C)
Dew Point: 44 F (7 C)
Relative Humidity: 87%
Pressure (altimeter): 30.15 in. Hg (1021 hPa)
ob: EPGD 162030Z VRB01KT 8000 NSC 09/07 Q1021
cycle: 20

Station Type Date Time Source
EPGD TAF 2018/10/16 18:38 UTC NOAA

TAF EPGD 161730Z 1618/1718 20004KT CAVOK PROB40 1700/1706 2000 BR


Example: see airport list